sensor_id;sensor_type;location;lat;lon;timestamp;P1;durP1;ratioP1;P2;durP2;ratioP2
2912;SDS011;1466;48.778;9.166;2023-04-08T00:00:13;25.27;;;12.10;;
2912;SDS011;1466;48.778;9.166;2023-04-08T00:02:39;23.07;;;11.33;;
2912;SDS011;1466;48.778;9.166;2023-04-08T00:05:05;24.90;;;12.13;;
2912;SDS011;1466;48.778;9.166;2023-04-08T00:07:32;25.50;;;13.15;;
2912;SDS011;1466;48.778;9.166;2023-04-08T00:09:57;26.17;;;11.43;;
2912;SDS011;1466;48.778;9.166;2023-04-08T00:12:23;29.63;;;13.37;;
2912;SDS011;1466;48.778;9.166;2023-04-08T00:14:48;29.20;;;12.77;;
2912;SDS011;1466;48.778;9.166;2023-04-08T00:17:14;28.00;;;13.17;;
2912;SDS011;1466;48.778;9.166;2023-04-08T00:19:40;21.20;;;11.95;;
2912;SDS011;1466;48.778;9.166;2023-04-08T00:22:06;27.20;;;12.90;;
2912;SDS011;1466;48.778;9.166;2023-04-08T00:24:32;22.00;;;12.20;;
2912;SDS011;1466;48.778;9.166;2023-04-08T00:26:58;32.90;;;14.05;;
2912;SDS011;1466;48.778;9.166;2023-04-08T00:29:24;32.95;;;13.45;;
2912;SDS011;1466;48.778;9.166;2023-04-08T00:31:50;26.57;;;13.30;;
2912;SDS011;1466;48.778;9.166;2023-04-08T00:34:16;36.75;;;12.85;;
2912;SDS011;1466;48.778;9.166;2023-04-08T00:36:42;25.83;;;11.67;;
2912;SDS011;1466;48.778;9.166;2023-04-08T00:39:07;24.03;;;12.70;;
2912;SDS011;1466;48.778;9.166;2023-04-08T00:41:33;28.30;;;12.63;;
2912;SDS011;1466;48.778;9.166;2023-04-08T00:43:59;36.50;;;13.90;;
2912;SDS011;1466;48.778;9.166;2023-04-08T00:46:25;26.77;;;13.07;;
2912;SDS011;1466;48.778;9.166;2023-04-08T00:48:51;27.58;;;14.93;;
2912;SDS011;1466;48.778;9.166;2023-04-08T00:51:17;30.20;;;13.70;;
2912;SDS011;1466;48.778;9.166;2023-04-08T00:53:43;35.70;;;13.65;;
2912;SDS011;1466;48.778;9.166;2023-04-08T00:56:09;19.77;;;10.80;;
2912;SDS011;1466;48.778;9.166;2023-04-08T00:58:35;24.30;;;11.97;;
2912;SDS011;1466;48.778;9.166;2023-04-08T01:01:11;28.15;;;12.02;;
2912;SDS011;1466;48.778;9.166;2023-04-08T01:03:57;27.33;;;12.50;;
2912;SDS011;1466;48.778;9.166;2023-04-08T01:07:16;26.17;;;12.00;;
2912;SDS011;1466;48.778;9.166;2023-04-08T01:09:41;27.23;;;12.80;;
2912;SDS011;1466;48.778;9.166;2023-04-08T01:12:10;27.73;;;14.05;;
2912;SDS011;1466;48.778;9.166;2023-04-08T01:14:42;23.42;;;12.15;;
2912;SDS011;1466;48.778;9.166;2023-04-08T01:17:10;25.27;;;13.20;;
2912;SDS011;1466;48.778;9.166;2023-04-08T01:19:37;22.10;;;11.93;;
2912;SDS011;1466;48.778;9.166;2023-04-08T01:22:26;24.48;;;12.43;;
2912;SDS011;1466;48.778;9.166;2023-04-08T01:25:11;28.58;;;13.32;;
2912;SDS011;1466;48.778;9.166;2023-04-08T01:27:41;34.53;;;15.10;;
2912;SDS011;1466;48.778;9.166;2023-04-08T01:30:07;27.40;;;13.27;;
2912;SDS011;1466;48.778;9.166;2023-04-08T01:32:34;21.85;;;10.35;;
2912;SDS011;1466;48.778;9.166;2023-04-08T01:35:00;23.88;;;11.02;;
2912;SDS011;1466;48.778;9.166;2023-04-08T01:37:27;27.25;;;12.32;;
2912;SDS011;1466;48.778;9.166;2023-04-08T01:39:54;28.48;;;11.82;;
2912;SDS011;1466;48.778;9.166;2023-04-08T01:42:21;26.80;;;12.13;;
2912;SDS011;1466;48.778;9.166;2023-04-08T01:44:49;26.80;;;12.05;;
2912;SDS011;1466;48.778;9.166;2023-04-08T01:47:16;25.00;;;11.73;;
2912;SDS011;1466;48.778;9.166;2023-04-08T01:49:43;27.92;;;13.10;;
2912;SDS011;1466;48.778;9.166;2023-04-08T01:52:09;24.25;;;12.15;;
2912;SDS011;1466;48.778;9.166;2023-04-08T01:54:36;26.23;;;11.70;;
2912;SDS011;1466;48.778;9.166;2023-04-08T01:57:03;30.07;;;14.03;;
2912;SDS011;1466;48.778;9.166;2023-04-08T01:59:33;26.80;;;12.38;;
2912;SDS011;1466;48.778;9.166;2023-04-08T02:02:01;37.45;;;14.88;;
2912;SDS011;1466;48.778;9.166;2023-04-08T02:04:31;26.85;;;12.30;;
2912;SDS011;1466;48.778;9.166;2023-04-08T02:06:58;26.23;;;12.38;;
2912;SDS011;1466;48.778;9.166;2023-04-08T02:09:25;25.90;;;12.00;;
2912;SDS011;1466;48.778;9.166;2023-04-08T02:11:51;27.15;;;12.88;;
2912;SDS011;1466;48.778;9.166;2023-04-08T02:14:17;25.17;;;11.70;;
2912;SDS011;1466;48.778;9.166;2023-04-08T02:16:45;30.20;;;13.50;;
2912;SDS011;1466;48.778;9.166;2023-04-08T02:19:19;27.17;;;11.73;;
2912;SDS011;1466;48.778;9.166;2023-04-08T02:21:51;29.52;;;13.27;;
2912;SDS011;1466;48.778;9.166;2023-04-08T02:24:21;28.38;;;13.75;;
2912;SDS011;1466;48.778;9.166;2023-04-08T02:26:48;29.50;;;12.50;;
2912;SDS011;1466;48.778;9.166;2023-04-08T02:29:15;29.48;;;13.70;;
2912;SDS011;1466;48.778;9.166;2023-04-08T02:31:42;31.77;;;14.90;;
2912;SDS011;1466;48.778;9.166;2023-04-08T02:34:09;26.35;;;12.07;;
2912;SDS011;1466;48.778;9.166;2023-04-08T02:36:35;23.40;;;12.02;;
2912;SDS011;1466;48.778;9.166;2023-04-08T02:39:02;26.63;;;12.25;;
2912;SDS011;1466;48.778;9.166;2023-04-08T02:41:28;23.67;;;13.20;;
2912;SDS011;1466;48.778;9.166;2023-04-08T02:43:54;32.88;;;13.13;;
2912;SDS011;1466;48.778;9.166;2023-04-08T02:46:20;25.13;;;12.40;;
2912;SDS011;1466;48.778;9.166;2023-04-08T02:48:46;37.03;;;14.60;;
2912;SDS011;1466;48.778;9.166;2023-04-08T02:51:11;22.43;;;11.30;;
2912;SDS011;1466;48.778;9.166;2023-04-08T02:53:37;31.13;;;14.30;;
2912;SDS011;1466;48.778;9.166;2023-04-08T02:56:02;30.70;;;14.57;;
2912;SDS011;1466;48.778;9.166;2023-04-08T02:58:28;27.77;;;13.57;;
2912;SDS011;1466;48.778;9.166;2023-04-08T03:00:54;28.60;;;13.87;;
2912;SDS011;1466;48.778;9.166;2023-04-08T03:03:20;40.20;;;15.50;;
2912;SDS011;1466;48.778;9.166;2023-04-08T03:05:53;29.35;;;14.13;;
2912;SDS011;1466;48.778;9.166;2023-04-08T03:08:21;38.72;;;15.48;;
2912;SDS011;1466;48.778;9.166;2023-04-08T03:10:47;39.67;;;15.93;;
2912;SDS011;1466;48.778;9.166;2023-04-08T03:13:14;39.72;;;15.40;;
2912;SDS011;1466;48.778;9.166;2023-04-08T03:15:40;36.20;;;15.60;;
2912;SDS011;1466;48.778;9.166;2023-04-08T03:18:06;29.92;;;12.77;;
2912;SDS011;1466;48.778;9.166;2023-04-08T03:20:32;26.37;;;13.37;;
2912;SDS011;1466;48.778;9.166;2023-04-08T03:22:57;34.60;;;14.20;;
2912;SDS011;1466;48.778;9.166;2023-04-08T03:25:23;35.57;;;14.57;;
2912;SDS011;1466;48.778;9.166;2023-04-08T03:27:48;33.83;;;12.17;;
2912;SDS011;1466;48.778;9.166;2023-04-08T03:30:15;30.77;;;14.35;;
2912;SDS011;1466;48.778;9.166;2023-04-08T03:32:40;30.83;;;13.60;;
2912;SDS011;1466;48.778;9.166;2023-04-08T03:35:06;34.37;;;13.97;;
2912;SDS011;1466;48.778;9.166;2023-04-08T03:37:32;37.10;;;14.73;;
2912;SDS011;1466;48.778;9.166;2023-04-08T03:39:57;34.40;;;14.43;;
2912;SDS011;1466;48.778;9.166;2023-04-08T03:42:23;27.93;;;12.00;;
2912;SDS011;1466;48.778;9.166;2023-04-08T03:44:49;28.10;;;13.73;;
2912;SDS011;1466;48.778;9.166;2023-04-08T03:47:15;35.07;;;13.13;;
2912;SDS011;1466;48.778;9.166;2023-04-08T03:49:40;30.80;;;12.43;;
2912;SDS011;1466;48.778;9.166;2023-04-08T03:52:06;32.77;;;14.07;;
2912;SDS011;1466;48.778;9.166;2023-04-08T03:54:32;31.03;;;13.77;;
2912;SDS011;1466;48.778;9.166;2023-04-08T03:56:57;29.67;;;13.20;;
2912;SDS011;1466;48.778;9.166;2023-04-08T03:59:23;29.93;;;13.77;;
2912;SDS011;1466;48.778;9.166;2023-04-08T04:01:48;29.27;;;13.00;;
2912;SDS011;1466;48.778;9.166;2023-04-08T04:04:15;32.20;;;13.27;;
2912;SDS011;1466;48.778;9.166;2023-04-08T04:06:41;38.13;;;14.80;;
2912;SDS011;1466;48.778;9.166;2023-04-08T04:09:06;27.47;;;11.87;;
2912;SDS011;1466;48.778;9.166;2023-04-08T04:11:33;34.30;;;13.97;;
2912;SDS011;1466;48.778;9.166;2023-04-08T04:13:59;30.10;;;13.63;;
2912;SDS011;1466;48.778;9.166;2023-04-08T04:16:25;27.13;;;14.23;;
2912;SDS011;1466;48.778;9.166;2023-04-08T04:18:51;24.40;;;12.03;;
2912;SDS011;1466;48.778;9.166;2023-04-08T04:21:17;34.03;;;14.20;;
2912;SDS011;1466;48.778;9.166;2023-04-08T04:23:43;37.27;;;14.80;;
2912;SDS011;1466;48.778;9.166;2023-04-08T04:26:09;33.37;;;15.10;;
2912;SDS011;1466;48.778;9.166;2023-04-08T04:28:35;28.30;;;12.52;;
2912;SDS011;1466;48.778;9.166;2023-04-08T04:31:01;33.97;;;15.57;;
2912;SDS011;1466;48.778;9.166;2023-04-08T04:33:27;39.10;;;15.83;;
2912;SDS011;1466;48.778;9.166;2023-04-08T04:35:53;28.27;;;14.20;;
2912;SDS011;1466;48.778;9.166;2023-04-08T04:38:18;33.37;;;14.77;;
2912;SDS011;1466;48.778;9.166;2023-04-08T04:40:44;35.77;;;14.67;;
2912;SDS011;1466;48.778;9.166;2023-04-08T04:43:10;31.47;;;13.37;;
2912;SDS011;1466;48.778;9.166;2023-04-08T04:45:35;32.43;;;14.60;;
2912;SDS011;1466;48.778;9.166;2023-04-08T04:48:01;36.57;;;16.90;;
2912;SDS011;1466;48.778;9.166;2023-04-08T04:50:27;38.95;;;16.05;;
2912;SDS011;1466;48.778;9.166;2023-04-08T04:52:53;34.13;;;13.67;;
2912;SDS011;1466;48.778;9.166;2023-04-08T04:55:18;38.40;;;16.80;;
2912;SDS011;1466;48.778;9.166;2023-04-08T04:57:46;41.80;;;16.25;;
2912;SDS011;1466;48.778;9.166;2023-04-08T05:00:12;35.55;;;15.93;;
2912;SDS011;1466;48.778;9.166;2023-04-08T05:02:38;30.57;;;15.60;;
2912;SDS011;1466;48.778;9.166;2023-04-08T05:05:04;41.17;;;17.63;;
2912;SDS011;1466;48.778;9.166;2023-04-08T05:07:29;40.83;;;18.40;;
2912;SDS011;1466;48.778;9.166;2023-04-08T05:09:55;43.17;;;17.93;;
2912;SDS011;1466;48.778;9.166;2023-04-08T05:12:21;38.37;;;16.57;;
2912;SDS011;1466;48.778;9.166;2023-04-08T05:14:46;45.37;;;17.80;;
2912;SDS011;1466;48.778;9.166;2023-04-08T05:17:12;44.53;;;16.90;;
2912;SDS011;1466;48.778;9.166;2023-04-08T05:19:37;29.47;;;15.20;;
2912;SDS011;1466;48.778;9.166;2023-04-08T05:22:03;44.83;;;15.57;;
2912;SDS011;1466;48.778;9.166;2023-04-08T05:24:29;43.37;;;17.30;;
2912;SDS011;1466;48.778;9.166;2023-04-08T05:26:55;36.43;;;17.30;;
2912;SDS011;1466;48.778;9.166;2023-04-08T05:29:21;40.17;;;17.42;;
2912;SDS011;1466;48.778;9.166;2023-04-08T05:31:47;39.10;;;15.77;;
2912;SDS011;1466;48.778;9.166;2023-04-08T05:34:13;40.90;;;16.90;;
2912;SDS011;1466;48.778;9.166;2023-04-08T05:36:39;29.70;;;15.30;;
2912;SDS011;1466;48.778;9.166;2023-04-08T05:39:05;38.57;;;17.03;;
2912;SDS011;1466;48.778;9.166;2023-04-08T05:41:31;36.00;;;16.27;;
2912;SDS011;1466;48.778;9.166;2023-04-08T05:43:56;43.70;;;17.57;;
2912;SDS011;1466;48.778;9.166;2023-04-08T05:46:22;33.83;;;16.40;;
2912;SDS011;1466;48.778;9.166;2023-04-08T05:48:47;36.13;;;18.17;;
2912;SDS011;1466;48.778;9.166;2023-04-08T05:51:13;36.17;;;18.83;;
2912;SDS011;1466;48.778;9.166;2023-04-08T05:53:40;37.03;;;17.60;;
2912;SDS011;1466;48.778;9.166;2023-04-08T05:56:05;41.13;;;16.50;;
2912;SDS011;1466;48.778;9.166;2023-04-08T05:58:31;43.17;;;17.80;;
2912;SDS011;1466;48.778;9.166;2023-04-08T06:00:57;34.00;;;17.47;;
2912;SDS011;1466;48.778;9.166;2023-04-08T06:03:22;33.37;;;15.43;;
2912;SDS011;1466;48.778;9.166;2023-04-08T06:05:48;41.97;;;16.93;;
2912;SDS011;1466;48.778;9.166;2023-04-08T06:08:14;39.47;;;17.53;;
2912;SDS011;1466;48.778;9.166;2023-04-08T06:10:40;32.70;;;17.60;;
2912;SDS011;1466;48.778;9.166;2023-04-08T06:13:13;38.05;;;19.25;;
2912;SDS011;1466;48.778;9.166;2023-04-08T06:15:38;41.43;;;16.67;;
2912;SDS011;1466;48.778;9.166;2023-04-08T06:18:04;43.93;;;16.57;;
2912;SDS011;1466;48.778;9.166;2023-04-08T06:20:29;30.93;;;15.40;;
2912;SDS011;1466;48.778;9.166;2023-04-08T06:22:55;46.93;;;20.77;;
2912;SDS011;1466;48.778;9.166;2023-04-08T06:25:21;43.80;;;18.53;;
2912;SDS011;1466;48.778;9.166;2023-04-08T06:27:47;45.23;;;17.80;;
2912;SDS011;1466;48.778;9.166;2023-04-08T06:30:12;34.97;;;15.23;;
2912;SDS011;1466;48.778;9.166;2023-04-08T06:32:38;32.03;;;16.23;;
2912;SDS011;1466;48.778;9.166;2023-04-08T06:35:04;39.83;;;16.83;;
2912;SDS011;1466;48.778;9.166;2023-04-08T06:37:30;37.40;;;16.35;;
2912;SDS011;1466;48.778;9.166;2023-04-08T06:39:55;40.93;;;16.30;;
2912;SDS011;1466;48.778;9.166;2023-04-08T06:42:21;43.37;;;18.03;;
2912;SDS011;1466;48.778;9.166;2023-04-08T06:44:46;35.73;;;16.07;;
2912;SDS011;1466;48.778;9.166;2023-04-08T06:47:12;36.23;;;16.33;;
2912;SDS011;1466;48.778;9.166;2023-04-08T06:49:38;36.27;;;15.40;;
2912;SDS011;1466;48.778;9.166;2023-04-08T06:52:03;33.27;;;14.73;;
2912;SDS011;1466;48.778;9.166;2023-04-08T06:54:30;37.78;;;16.92;;
2912;SDS011;1466;48.778;9.166;2023-04-08T06:56:56;38.07;;;14.97;;
2912;SDS011;1466;48.778;9.166;2023-04-08T06:59:21;38.93;;;16.20;;
2912;SDS011;1466;48.778;9.166;2023-04-08T07:01:47;38.23;;;16.67;;
2912;SDS011;1466;48.778;9.166;2023-04-08T07:04:12;32.83;;;16.20;;
2912;SDS011;1466;48.778;9.166;2023-04-08T07:06:38;33.53;;;14.67;;
2912;SDS011;1466;48.778;9.166;2023-04-08T07:09:03;37.70;;;15.90;;
2912;SDS011;1466;48.778;9.166;2023-04-08T07:11:29;44.90;;;16.80;;
2912;SDS011;1466;48.778;9.166;2023-04-08T07:13:55;33.93;;;13.60;;
2912;SDS011;1466;48.778;9.166;2023-04-08T07:16:21;34.63;;;13.17;;
2912;SDS011;1466;48.778;9.166;2023-04-08T07:18:46;34.00;;;14.47;;
2912;SDS011;1466;48.778;9.166;2023-04-08T07:21:12;35.63;;;15.13;;
2912;SDS011;1466;48.778;9.166;2023-04-08T07:23:38;33.28;;;14.18;;
2912;SDS011;1466;48.778;9.166;2023-04-08T07:26:04;30.10;;;12.20;;
2912;SDS011;1466;48.778;9.166;2023-04-08T07:28:30;31.57;;;14.40;;
2912;SDS011;1466;48.778;9.166;2023-04-08T07:31:12;29.95;;;13.63;;
2912;SDS011;1466;48.778;9.166;2023-04-08T07:33:39;30.95;;;14.10;;
2912;SDS011;1466;48.778;9.166;2023-04-08T07:36:05;31.43;;;13.67;;
2912;SDS011;1466;48.778;9.166;2023-04-08T07:38:32;26.10;;;12.10;;
2912;SDS011;1466;48.778;9.166;2023-04-08T07:40:58;29.47;;;13.23;;
2912;SDS011;1466;48.778;9.166;2023-04-08T07:43:23;35.77;;;14.73;;
2912;SDS011;1466;48.778;9.166;2023-04-08T07:45:49;28.00;;;13.80;;
2912;SDS011;1466;48.778;9.166;2023-04-08T07:48:15;33.83;;;15.43;;
2912;SDS011;1466;48.778;9.166;2023-04-08T07:50:40;32.73;;;14.90;;
2912;SDS011;1466;48.778;9.166;2023-04-08T07:53:06;32.13;;;13.50;;
2912;SDS011;1466;48.778;9.166;2023-04-08T07:55:32;24.02;;;13.40;;
2912;SDS011;1466;48.778;9.166;2023-04-08T07:57:59;30.95;;;13.75;;
2912;SDS011;1466;48.778;9.166;2023-04-08T08:00:25;28.52;;;13.23;;
2912;SDS011;1466;48.778;9.166;2023-04-08T08:02:51;34.05;;;13.18;;
2912;SDS011;1466;48.778;9.166;2023-04-08T08:05:17;22.07;;;11.70;;
2912;SDS011;1466;48.778;9.166;2023-04-08T08:07:42;28.37;;;12.63;;
2912;SDS011;1466;48.778;9.166;2023-04-08T08:10:08;26.53;;;12.00;;
2912;SDS011;1466;48.778;9.166;2023-04-08T08:12:34;24.98;;;13.77;;
2912;SDS011;1466;48.778;9.166;2023-04-08T08:15:00;41.83;;;15.00;;
2912;SDS011;1466;48.778;9.166;2023-04-08T08:17:26;37.80;;;15.32;;
2912;SDS011;1466;48.778;9.166;2023-04-08T08:19:54;34.08;;;15.45;;
2912;SDS011;1466;48.778;9.166;2023-04-08T08:22:19;28.77;;;14.27;;
2912;SDS011;1466;48.778;9.166;2023-04-08T08:24:45;29.37;;;13.70;;
2912;SDS011;1466;48.778;9.166;2023-04-08T08:27:11;26.88;;;12.05;;
2912;SDS011;1466;48.778;9.166;2023-04-08T08:29:36;25.67;;;13.30;;
2912;SDS011;1466;48.778;9.166;2023-04-08T08:32:02;25.23;;;14.53;;
2912;SDS011;1466;48.778;9.166;2023-04-08T08:34:28;26.10;;;13.27;;
2912;SDS011;1466;48.778;9.166;2023-04-08T08:36:54;25.60;;;12.70;;
2912;SDS011;1466;48.778;9.166;2023-04-08T08:39:20;26.70;;;13.30;;
2912;SDS011;1466;48.778;9.166;2023-04-08T08:41:46;42.80;;;15.23;;
2912;SDS011;1466;48.778;9.166;2023-04-08T08:44:12;27.87;;;13.13;;
2912;SDS011;1466;48.778;9.166;2023-04-08T08:46:42;25.57;;;11.90;;
2912;SDS011;1466;48.778;9.166;2023-04-08T08:49:08;23.50;;;13.43;;
2912;SDS011;1466;48.778;9.166;2023-04-08T08:51:34;25.55;;;11.75;;
2912;SDS011;1466;48.778;9.166;2023-04-08T08:54:03;26.27;;;13.50;;
2912;SDS011;1466;48.778;9.166;2023-04-08T08:56:29;24.58;;;14.50;;
2912;SDS011;1466;48.778;9.166;2023-04-08T08:58:56;29.10;;;13.35;;
2912;SDS011;1466;48.778;9.166;2023-04-08T09:04:05;25.08;;;12.93;;
2912;SDS011;1466;48.778;9.166;2023-04-08T09:06:31;20.45;;;12.52;;
2912;SDS011;1466;48.778;9.166;2023-04-08T09:08:56;32.00;;;13.80;;
2912;SDS011;1466;48.778;9.166;2023-04-08T09:11:22;30.17;;;13.47;;
2912;SDS011;1466;48.778;9.166;2023-04-08T09:13:48;28.00;;;13.40;;
2912;SDS011;1466;48.778;9.166;2023-04-08T09:16:15;27.27;;;13.55;;
2912;SDS011;1466;48.778;9.166;2023-04-08T09:18:43;24.17;;;11.07;;
2912;SDS011;1466;48.778;9.166;2023-04-08T09:21:10;27.58;;;12.88;;
2912;SDS011;1466;48.778;9.166;2023-04-08T09:26:14;24.75;;;12.73;;
2912;SDS011;1466;48.778;9.166;2023-04-08T09:28:41;25.58;;;12.30;;
2912;SDS011;1466;48.778;9.166;2023-04-08T09:33:42;34.97;;;14.68;;
2912;SDS011;1466;48.778;9.166;2023-04-08T09:36:08;28.00;;;13.70;;
2912;SDS011;1466;48.778;9.166;2023-04-08T09:38:33;34.50;;;15.03;;
2912;SDS011;1466;48.778;9.166;2023-04-08T09:40:59;28.27;;;14.30;;
2912;SDS011;1466;48.778;9.166;2023-04-08T09:43:29;26.90;;;13.43;;
2912;SDS011;1466;48.778;9.166;2023-04-08T09:45:56;31.73;;;14.65;;
2912;SDS011;1466;48.778;9.166;2023-04-08T09:48:26;33.00;;;15.35;;
2912;SDS011;1466;48.778;9.166;2023-04-08T09:50:58;35.03;;;13.73;;
2912;SDS011;1466;48.778;9.166;2023-04-08T09:53:45;33.83;;;13.30;;
2912;SDS011;1466;48.778;9.166;2023-04-08T09:56:12;27.60;;;14.68;;
2912;SDS011;1466;48.778;9.166;2023-04-08T09:58:44;35.08;;;14.60;;
2912;SDS011;1466;48.778;9.166;2023-04-08T10:01:21;37.60;;;14.30;;
2912;SDS011;1466;48.778;9.166;2023-04-08T10:03:53;34.55;;;13.90;;
2912;SDS011;1466;48.778;9.166;2023-04-08T10:06:21;33.38;;;13.75;;
2912;SDS011;1466;48.778;9.166;2023-04-08T10:08:48;33.45;;;14.00;;
2912;SDS011;1466;48.778;9.166;2023-04-08T10:11:14;29.52;;;14.93;;
2912;SDS011;1466;48.778;9.166;2023-04-08T10:13:41;32.63;;;14.75;;
2912;SDS011;1466;48.778;9.166;2023-04-08T10:16:20;31.45;;;12.85;;
2912;SDS011;1466;48.778;9.166;2023-04-08T10:18:52;37.75;;;14.85;;
2912;SDS011;1466;48.778;9.166;2023-04-08T10:24:01;29.90;;;14.43;;
2912;SDS011;1466;48.778;9.166;2023-04-08T10:26:34;28.30;;;14.18;;
2912;SDS011;1466;48.778;9.166;2023-04-08T10:29:46;30.10;;;14.32;;
2912;SDS011;1466;48.778;9.166;2023-04-08T10:31:52;35.00;;;16.17;;
2912;SDS011;1466;48.778;9.166;2023-04-08T10:34:18;37.63;;;15.30;;
2912;SDS011;1466;48.778;9.166;2023-04-08T10:36:46;33.28;;;14.77;;
2912;SDS011;1466;48.778;9.166;2023-04-08T10:39:13;35.03;;;12.60;;
2912;SDS011;1466;48.778;9.166;2023-04-08T10:41:49;32.35;;;15.05;;
2912;SDS011;1466;48.778;9.166;2023-04-08T10:46:41;29.83;;;14.00;;
2912;SDS011;1466;48.778;9.166;2023-04-08T10:49:08;35.83;;;13.88;;
2912;SDS011;1466;48.778;9.166;2023-04-08T10:51:33;27.77;;;13.03;;
2912;SDS011;1466;48.778;9.166;2023-04-08T10:54:09;28.60;;;11.80;;
2912;SDS011;1466;48.778;9.166;2023-04-08T10:56:42;30.20;;;15.05;;
2912;SDS011;1466;48.778;9.166;2023-04-08T10:59:12;25.83;;;11.45;;
2912;SDS011;1466;48.778;9.166;2023-04-08T11:01:41;42.42;;;15.48;;
2912;SDS011;1466;48.778;9.166;2023-04-08T11:04:12;38.78;;;13.52;;
2912;SDS011;1466;48.778;9.166;2023-04-08T11:06:40;33.75;;;14.23;;
2912;SDS011;1466;48.778;9.166;2023-04-08T11:09:07;25.63;;;13.63;;
2912;SDS011;1466;48.778;9.166;2023-04-08T11:11:33;34.97;;;14.63;;
2912;SDS011;1466;48.778;9.166;2023-04-08T11:13:58;29.57;;;11.90;;
2912;SDS011;1466;48.778;9.166;2023-04-08T11:16:25;28.45;;;13.13;;
2912;SDS011;1466;48.778;9.166;2023-04-08T11:18:52;34.88;;;12.93;;
2912;SDS011;1466;48.778;9.166;2023-04-08T11:21:26;26.25;;;13.50;;
2912;SDS011;1466;48.778;9.166;2023-04-08T11:23:53;28.42;;;13.75;;
2912;SDS011;1466;48.778;9.166;2023-04-08T11:26:20;30.10;;;12.85;;
2912;SDS011;1466;48.778;9.166;2023-04-08T11:28:46;29.13;;;12.77;;
2912;SDS011;1466;48.778;9.166;2023-04-08T11:31:15;27.30;;;13.07;;
2912;SDS011;1466;48.778;9.166;2023-04-08T11:33:45;35.08;;;13.48;;
2912;SDS011;1466;48.778;9.166;2023-04-08T11:36:12;32.60;;;13.15;;
2912;SDS011;1466;48.778;9.166;2023-04-08T11:38:38;27.60;;;11.43;;
2912;SDS011;1466;48.778;9.166;2023-04-08T11:41:05;29.35;;;13.48;;
2912;SDS011;1466;48.778;9.166;2023-04-08T11:43:31;33.50;;;13.07;;
2912;SDS011;1466;48.778;9.166;2023-04-08T11:45:56;29.87;;;12.40;;
2912;SDS011;1466;48.778;9.166;2023-04-08T11:48:22;26.27;;;11.53;;
2912;SDS011;1466;48.778;9.166;2023-04-08T11:50:49;31.40;;;13.67;;
2912;SDS011;1466;48.778;9.166;2023-04-08T11:53:27;25.23;;;12.80;;
2912;SDS011;1466;48.778;9.166;2023-04-08T11:55:53;27.27;;;14.27;;
2912;SDS011;1466;48.778;9.166;2023-04-08T11:58:20;29.30;;;13.20;;
2912;SDS011;1466;48.778;9.166;2023-04-08T12:00:45;38.40;;;14.47;;
2912;SDS011;1466;48.778;9.166;2023-04-08T12:03:11;33.70;;;14.53;;
2912;SDS011;1466;48.778;9.166;2023-04-08T12:05:37;24.73;;;12.63;;
2912;SDS011;1466;48.778;9.166;2023-04-08T12:08:03;33.60;;;14.53;;
2912;SDS011;1466;48.778;9.166;2023-04-08T12:10:29;31.20;;;12.50;;
2912;SDS011;1466;48.778;9.166;2023-04-08T12:12:54;27.47;;;9.70;;
2912;SDS011;1466;48.778;9.166;2023-04-08T12:15:20;32.23;;;13.93;;
2912;SDS011;1466;48.778;9.166;2023-04-08T12:17:46;36.10;;;14.73;;
2912;SDS011;1466;48.778;9.166;2023-04-08T12:20:13;31.60;;;14.55;;
2912;SDS011;1466;48.778;9.166;2023-04-08T12:22:41;26.67;;;10.57;;
2912;SDS011;1466;48.778;9.166;2023-04-08T12:25:06;30.93;;;12.87;;
2912;SDS011;1466;48.778;9.166;2023-04-08T12:27:32;29.02;;;13.05;;
2912;SDS011;1466;48.778;9.166;2023-04-08T12:29:58;24.43;;;13.47;;
2912;SDS011;1466;48.778;9.166;2023-04-08T12:32:25;28.10;;;14.05;;
2912;SDS011;1466;48.778;9.166;2023-04-08T12:34:51;23.10;;;11.70;;
2912;SDS011;1466;48.778;9.166;2023-04-08T12:37:17;23.93;;;10.27;;
2912;SDS011;1466;48.778;9.166;2023-04-08T12:39:42;33.13;;;14.47;;
2912;SDS011;1466;48.778;9.166;2023-04-08T12:42:08;47.60;;;15.50;;
2912;SDS011;1466;48.778;9.166;2023-04-08T12:44:33;30.40;;;12.33;;
2912;SDS011;1466;48.778;9.166;2023-04-08T12:46:59;26.77;;;13.07;;
2912;SDS011;1466;48.778;9.166;2023-04-08T12:49:25;28.47;;;12.97;;
2912;SDS011;1466;48.778;9.166;2023-04-08T12:51:51;27.30;;;12.80;;
2912;SDS011;1466;48.778;9.166;2023-04-08T12:54:17;36.72;;;13.35;;
2912;SDS011;1466;48.778;9.166;2023-04-08T12:56:43;33.25;;;13.52;;
2912;SDS011;1466;48.778;9.166;2023-04-08T12:59:09;29.83;;;13.57;;
2912;SDS011;1466;48.778;9.166;2023-04-08T13:01:35;33.17;;;13.50;;
2912;SDS011;1466;48.778;9.166;2023-04-08T13:04:00;21.10;;;8.60;;
2912;SDS011;1466;48.778;9.166;2023-04-08T13:06:26;36.20;;;12.90;;
2912;SDS011;1466;48.778;9.166;2023-04-08T13:08:52;30.40;;;12.67;;
2912;SDS011;1466;48.778;9.166;2023-04-08T13:11:18;37.13;;;15.63;;
2912;SDS011;1466;48.778;9.166;2023-04-08T13:13:43;35.60;;;14.77;;
2912;SDS011;1466;48.778;9.166;2023-04-08T13:16:11;30.88;;;13.00;;
2912;SDS011;1466;48.778;9.166;2023-04-08T13:18:39;38.67;;;14.95;;
2912;SDS011;1466;48.778;9.166;2023-04-08T13:21:05;33.30;;;13.37;;
2912;SDS011;1466;48.778;9.166;2023-04-08T13:23:31;30.98;;;13.05;;
2912;SDS011;1466;48.778;9.166;2023-04-08T13:25:57;31.27;;;13.50;;
2912;SDS011;1466;48.778;9.166;2023-04-08T13:28:23;40.23;;;14.47;;
2912;SDS011;1466;48.778;9.166;2023-04-08T13:30:48;23.23;;;12.40;;
2912;SDS011;1466;48.778;9.166;2023-04-08T13:33:15;28.80;;;12.57;;
2912;SDS011;1466;48.778;9.166;2023-04-08T13:35:41;30.67;;;13.55;;
2912;SDS011;1466;48.778;9.166;2023-04-08T13:38:06;26.70;;;12.67;;
2912;SDS011;1466;48.778;9.166;2023-04-08T13:40:32;27.57;;;12.93;;
2912;SDS011;1466;48.778;9.166;2023-04-08T13:42:58;29.00;;;13.30;;
2912;SDS011;1466;48.778;9.166;2023-04-08T13:45:23;25.50;;;11.50;;
2912;SDS011;1466;48.778;9.166;2023-04-08T13:47:51;33.38;;;13.70;;
2912;SDS011;1466;48.778;9.166;2023-04-08T13:50:17;31.93;;;14.67;;
2912;SDS011;1466;48.778;9.166;2023-04-08T13:52:43;29.53;;;13.60;;
2912;SDS011;1466;48.778;9.166;2023-04-08T13:55:08;31.57;;;13.50;;
2912;SDS011;1466;48.778;9.166;2023-04-08T13:57:34;27.93;;;11.77;;
2912;SDS011;1466;48.778;9.166;2023-04-08T14:00:00;29.48;;;14.27;;
2912;SDS011;1466;48.778;9.166;2023-04-08T14:02:26;26.83;;;13.77;;
2912;SDS011;1466;48.778;9.166;2023-04-08T14:04:52;38.53;;;15.27;;
2912;SDS011;1466;48.778;9.166;2023-04-08T14:07:17;27.90;;;14.27;;
2912;SDS011;1466;48.778;9.166;2023-04-08T14:09:43;31.92;;;13.88;;
2912;SDS011;1466;48.778;9.166;2023-04-08T14:12:09;34.57;;;14.10;;
2912;SDS011;1466;48.778;9.166;2023-04-08T14:14:35;27.93;;;15.23;;
2912;SDS011;1466;48.778;9.166;2023-04-08T14:17:00;32.33;;;13.47;;
2912;SDS011;1466;48.778;9.166;2023-04-08T14:19:26;27.10;;;10.17;;
2912;SDS011;1466;48.778;9.166;2023-04-08T14:21:51;30.90;;;14.07;;
2912;SDS011;1466;48.778;9.166;2023-04-08T14:24:17;30.20;;;13.23;;
2912;SDS011;1466;48.778;9.166;2023-04-08T14:26:43;19.27;;;10.87;;
2912;SDS011;1466;48.778;9.166;2023-04-08T14:29:09;29.53;;;13.40;;
2912;SDS011;1466;48.778;9.166;2023-04-08T14:31:35;35.50;;;14.15;;
2912;SDS011;1466;48.778;9.166;2023-04-08T14:34:01;24.03;;;12.93;;
2912;SDS011;1466;48.778;9.166;2023-04-08T14:36:27;33.65;;;14.05;;
2912;SDS011;1466;48.778;9.166;2023-04-08T14:38:54;20.75;;;12.10;;
2912;SDS011;1466;48.778;9.166;2023-04-08T14:41:20;35.40;;;14.48;;
2912;SDS011;1466;48.778;9.166;2023-04-08T14:43:46;29.63;;;12.93;;
2912;SDS011;1466;48.778;9.166;2023-04-08T14:46:12;30.08;;;13.25;;
2912;SDS011;1466;48.778;9.166;2023-04-08T14:48:37;25.20;;;11.10;;
2912;SDS011;1466;48.778;9.166;2023-04-08T14:51:03;25.00;;;12.10;;
2912;SDS011;1466;48.778;9.166;2023-04-08T14:53:30;29.25;;;13.63;;
2912;SDS011;1466;48.778;9.166;2023-04-08T14:55:55;27.70;;;11.83;;
2912;SDS011;1466;48.778;9.166;2023-04-08T14:58:21;22.17;;;11.80;;